sensor_id;sensor_type;location;lat;lon;timestamp;P1;durP1;ratioP1;P2;durP2;ratioP2
4307;SDS011;2167;53.448;9.984;2023-09-19T00:02:16;2.73;;;1.70;;
4307;SDS011;2167;53.448;9.984;2023-09-19T00:04:42;4.23;;;1.00;;
4307;SDS011;2167;53.448;9.984;2023-09-19T00:07:08;1.90;;;1.13;;
4307;SDS011;2167;53.448;9.984;2023-09-19T00:09:34;1.70;;;1.20;;
4307;SDS011;2167;53.448;9.984;2023-09-19T00:12:05;1.43;;;1.13;;
4307;SDS011;2167;53.448;9.984;2023-09-19T00:14:32;1.40;;;1.30;;
4307;SDS011;2167;53.448;9.984;2023-09-19T00:17:01;4.40;;;1.53;;
4307;SDS011;2167;53.448;9.984;2023-09-19T00:19:34;4.10;;;1.90;;
4307;SDS011;2167;53.448;9.984;2023-09-19T00:22:00;1.33;;;1.20;;
4307;SDS011;2167;53.448;9.984;2023-09-19T00:24:26;2.00;;;1.47;;
4307;SDS011;2167;53.448;9.984;2023-09-19T00:26:53;2.27;;;1.43;;
4307;SDS011;2167;53.448;9.984;2023-09-19T00:29:20;3.50;;;1.40;;
4307;SDS011;2167;53.448;9.984;2023-09-19T00:31:48;3.03;;;1.90;;
4307;SDS011;2167;53.448;9.984;2023-09-19T00:34:15;1.70;;;1.27;;
4307;SDS011;2167;53.448;9.984;2023-09-19T00:36:41;2.17;;;1.60;;
4307;SDS011;2167;53.448;9.984;2023-09-19T00:39:08;1.73;;;1.30;;
4307;SDS011;2167;53.448;9.984;2023-09-19T00:41:35;2.73;;;1.40;;
4307;SDS011;2167;53.448;9.984;2023-09-19T00:44:02;2.13;;;1.57;;
4307;SDS011;2167;53.448;9.984;2023-09-19T00:46:30;2.20;;;1.27;;
4307;SDS011;2167;53.448;9.984;2023-09-19T00:48:57;3.77;;;1.53;;
4307;SDS011;2167;53.448;9.984;2023-09-19T00:51:24;4.53;;;1.80;;
4307;SDS011;2167;53.448;9.984;2023-09-19T00:53:51;5.63;;;2.00;;
4307;SDS011;2167;53.448;9.984;2023-09-19T00:56:17;1.50;;;1.40;;
4307;SDS011;2167;53.448;9.984;2023-09-19T00:58:44;2.07;;;1.43;;
4307;SDS011;2167;53.448;9.984;2023-09-19T01:01:11;1.90;;;1.63;;
4307;SDS011;2167;53.448;9.984;2023-09-19T01:03:39;3.33;;;2.03;;
4307;SDS011;2167;53.448;9.984;2023-09-19T01:06:06;4.23;;;2.17;;
4307;SDS011;2167;53.448;9.984;2023-09-19T01:08:33;2.30;;;1.83;;
4307;SDS011;2167;53.448;9.984;2023-09-19T01:11:12;2.60;;;2.40;;
4307;SDS011;2167;53.448;9.984;2023-09-19T01:13:47;3.37;;;2.23;;
4307;SDS011;2167;53.448;9.984;2023-09-19T01:16:29;3.00;;;2.23;;
4307;SDS011;2167;53.448;9.984;2023-09-19T01:21:31;3.43;;;2.43;;
4307;SDS011;2167;53.448;9.984;2023-09-19T01:32:04;4.33;;;2.73;;
4307;SDS011;2167;53.448;9.984;2023-09-19T01:34:50;3.67;;;2.60;;
4307;SDS011;2167;53.448;9.984;2023-09-19T01:37:17;9.30;;;2.60;;
4307;SDS011;2167;53.448;9.984;2023-09-19T01:39:55;2.47;;;1.90;;
4307;SDS011;2167;53.448;9.984;2023-09-19T01:44:59;3.57;;;1.87;;
4307;SDS011;2167;53.448;9.984;2023-09-19T01:47:31;2.03;;;1.63;;
4307;SDS011;2167;53.448;9.984;2023-09-19T01:50:02;3.30;;;2.60;;
4307;SDS011;2167;53.448;9.984;2023-09-19T01:52:34;2.80;;;2.00;;
4307;SDS011;2167;53.448;9.984;2023-09-19T01:55:05;3.20;;;2.67;;
4307;SDS011;2167;53.448;9.984;2023-09-19T01:57:38;5.13;;;2.70;;
4307;SDS011;2167;53.448;9.984;2023-09-19T02:00:07;5.23;;;2.43;;
4307;SDS011;2167;53.448;9.984;2023-09-19T02:02:37;2.60;;;2.33;;
4307;SDS011;2167;53.448;9.984;2023-09-19T02:05:04;4.67;;;2.57;;
4307;SDS011;2167;53.448;9.984;2023-09-19T02:07:30;3.70;;;2.37;;
4307;SDS011;2167;53.448;9.984;2023-09-19T02:09:57;4.47;;;2.27;;
4307;SDS011;2167;53.448;9.984;2023-09-19T02:12:25;4.00;;;2.10;;
4307;SDS011;2167;53.448;9.984;2023-09-19T02:14:51;2.53;;;1.73;;
4307;SDS011;2167;53.448;9.984;2023-09-19T02:17:17;3.27;;;2.80;;
4307;SDS011;2167;53.448;9.984;2023-09-19T02:19:44;3.50;;;2.20;;
4307;SDS011;2167;53.448;9.984;2023-09-19T02:22:10;2.70;;;1.80;;
4307;SDS011;2167;53.448;9.984;2023-09-19T02:24:36;2.80;;;2.00;;
4307;SDS011;2167;53.448;9.984;2023-09-19T02:27:03;3.33;;;2.50;;
4307;SDS011;2167;53.448;9.984;2023-09-19T02:29:29;2.60;;;2.03;;
4307;SDS011;2167;53.448;9.984;2023-09-19T02:31:55;6.63;;;1.90;;
4307;SDS011;2167;53.448;9.984;2023-09-19T02:34:22;5.50;;;2.30;;
4307;SDS011;2167;53.448;9.984;2023-09-19T02:36:48;5.87;;;2.63;;
4307;SDS011;2167;53.448;9.984;2023-09-19T02:39:14;8.63;;;2.43;;
4307;SDS011;2167;53.448;9.984;2023-09-19T02:41:40;3.60;;;1.70;;
4307;SDS011;2167;53.448;9.984;2023-09-19T02:44:09;3.20;;;1.63;;
4307;SDS011;2167;53.448;9.984;2023-09-19T02:46:35;5.20;;;1.87;;
4307;SDS011;2167;53.448;9.984;2023-09-19T02:49:01;5.20;;;2.00;;
4307;SDS011;2167;53.448;9.984;2023-09-19T02:51:30;2.13;;;1.93;;
4307;SDS011;2167;53.448;9.984;2023-09-19T02:53:56;2.30;;;1.70;;
4307;SDS011;2167;53.448;9.984;2023-09-19T02:56:22;2.20;;;2.07;;
4307;SDS011;2167;53.448;9.984;2023-09-19T02:58:50;4.10;;;1.70;;
4307;SDS011;2167;53.448;9.984;2023-09-19T03:01:16;2.17;;;2.03;;
4307;SDS011;2167;53.448;9.984;2023-09-19T03:03:43;5.77;;;2.07;;
4307;SDS011;2167;53.448;9.984;2023-09-19T03:06:10;3.90;;;1.77;;
4307;SDS011;2167;53.448;9.984;2023-09-19T03:08:37;4.10;;;1.50;;
4307;SDS011;2167;53.448;9.984;2023-09-19T03:11:04;3.70;;;1.90;;
4307;SDS011;2167;53.448;9.984;2023-09-19T03:13:36;2.30;;;1.83;;
4307;SDS011;2167;53.448;9.984;2023-09-19T03:16:03;4.23;;;1.67;;
4307;SDS011;2167;53.448;9.984;2023-09-19T03:18:30;2.00;;;1.57;;
4307;SDS011;2167;53.448;9.984;2023-09-19T03:20:57;5.70;;;2.50;;
4307;SDS011;2167;53.448;9.984;2023-09-19T03:23:26;2.30;;;1.80;;
4307;SDS011;2167;53.448;9.984;2023-09-19T03:25:53;3.30;;;1.87;;
4307;SDS011;2167;53.448;9.984;2023-09-19T03:28:19;4.13;;;1.50;;
4307;SDS011;2167;53.448;9.984;2023-09-19T03:30:56;1.90;;;1.60;;
4307;SDS011;2167;53.448;9.984;2023-09-19T03:33:22;2.40;;;1.93;;
4307;SDS011;2167;53.448;9.984;2023-09-19T03:35:52;2.70;;;1.70;;
4307;SDS011;2167;53.448;9.984;2023-09-19T03:38:18;1.57;;;1.43;;
4307;SDS011;2167;53.448;9.984;2023-09-19T03:40:44;2.83;;;1.40;;
4307;SDS011;2167;53.448;9.984;2023-09-19T03:43:10;1.00;;;1.00;;
4307;SDS011;2167;53.448;9.984;2023-09-19T03:45:36;2.87;;;1.93;;
4307;SDS011;2167;53.448;9.984;2023-09-19T03:48:08;2.53;;;1.20;;
4307;SDS011;2167;53.448;9.984;2023-09-19T03:50:34;1.50;;;1.40;;
4307;SDS011;2167;53.448;9.984;2023-09-19T03:52:59;6.13;;;1.33;;
4307;SDS011;2167;53.448;9.984;2023-09-19T03:55:25;1.47;;;1.00;;
4307;SDS011;2167;53.448;9.984;2023-09-19T03:57:52;1.97;;;1.23;;
4307;SDS011;2167;53.448;9.984;2023-09-19T04:00:18;0.83;;;0.77;;
4307;SDS011;2167;53.448;9.984;2023-09-19T04:02:47;1.07;;;0.90;;
4307;SDS011;2167;53.448;9.984;2023-09-19T04:05:13;1.30;;;1.20;;
4307;SDS011;2167;53.448;9.984;2023-09-19T04:07:39;1.40;;;1.00;;
4307;SDS011;2167;53.448;9.984;2023-09-19T04:10:05;1.90;;;0.80;;
4307;SDS011;2167;53.448;9.984;2023-09-19T04:12:34;3.00;;;1.40;;
4307;SDS011;2167;53.448;9.984;2023-09-19T04:14:59;1.80;;;1.10;;
4307;SDS011;2167;53.448;9.984;2023-09-19T04:17:25;4.50;;;1.23;;
4307;SDS011;2167;53.448;9.984;2023-09-19T04:19:51;6.70;;;1.57;;
4307;SDS011;2167;53.448;9.984;2023-09-19T04:22:18;5.00;;;1.00;;
4307;SDS011;2167;53.448;9.984;2023-09-19T04:24:44;2.17;;;0.93;;
4307;SDS011;2167;53.448;9.984;2023-09-19T04:27:10;6.07;;;0.93;;
4307;SDS011;2167;53.448;9.984;2023-09-19T04:29:39;1.70;;;1.07;;
4307;SDS011;2167;53.448;9.984;2023-09-19T04:32:06;1.00;;;0.70;;
4307;SDS011;2167;53.448;9.984;2023-09-19T04:34:32;3.07;;;0.90;;
4307;SDS011;2167;53.448;9.984;2023-09-19T04:36:59;2.43;;;1.13;;
4307;SDS011;2167;53.448;9.984;2023-09-19T04:39:25;3.80;;;2.33;;
4307;SDS011;2167;53.448;9.984;2023-09-19T04:41:52;1.80;;;0.83;;
4307;SDS011;2167;53.448;9.984;2023-09-19T04:44:18;3.13;;;1.30;;
4307;SDS011;2167;53.448;9.984;2023-09-19T04:46:44;7.87;;;1.13;;
4307;SDS011;2167;53.448;9.984;2023-09-19T04:49:13;3.20;;;1.03;;
4307;SDS011;2167;53.448;9.984;2023-09-19T04:51:39;7.63;;;1.20;;
4307;SDS011;2167;53.448;9.984;2023-09-19T04:54:05;2.07;;;0.70;;
4307;SDS011;2167;53.448;9.984;2023-09-19T04:56:31;1.93;;;0.77;;
4307;SDS011;2167;53.448;9.984;2023-09-19T04:58:58;0.60;;;0.50;;
4307;SDS011;2167;53.448;9.984;2023-09-19T05:01:25;4.20;;;1.10;;
4307;SDS011;2167;53.448;9.984;2023-09-19T05:03:51;1.93;;;0.80;;
4307;SDS011;2167;53.448;9.984;2023-09-19T05:06:20;2.37;;;1.03;;
4307;SDS011;2167;53.448;9.984;2023-09-19T05:08:46;1.70;;;0.97;;
4307;SDS011;2167;53.448;9.984;2023-09-19T05:11:20;7.57;;;1.50;;
4307;SDS011;2167;53.448;9.984;2023-09-19T05:13:47;4.37;;;1.53;;
4307;SDS011;2167;53.448;9.984;2023-09-19T05:16:15;1.63;;;1.00;;
4307;SDS011;2167;53.448;9.984;2023-09-19T05:18:41;4.60;;;1.00;;
4307;SDS011;2167;53.448;9.984;2023-09-19T05:21:07;3.13;;;0.90;;
4307;SDS011;2167;53.448;9.984;2023-09-19T05:23:33;5.43;;;0.80;;
4307;SDS011;2167;53.448;9.984;2023-09-19T05:25:59;3.30;;;1.30;;
4307;SDS011;2167;53.448;9.984;2023-09-19T05:28:25;1.17;;;1.03;;
4307;SDS011;2167;53.448;9.984;2023-09-19T05:30:52;4.00;;;1.50;;
4307;SDS011;2167;53.448;9.984;2023-09-19T05:33:18;3.73;;;0.83;;
4307;SDS011;2167;53.448;9.984;2023-09-19T05:35:44;1.23;;;1.13;;
4307;SDS011;2167;53.448;9.984;2023-09-19T05:38:12;7.67;;;1.20;;
4307;SDS011;2167;53.448;9.984;2023-09-19T05:40:39;4.30;;;1.33;;
4307;SDS011;2167;53.448;9.984;2023-09-19T05:43:07;4.57;;;1.43;;
4307;SDS011;2167;53.448;9.984;2023-09-19T05:45:33;1.43;;;0.87;;
4307;SDS011;2167;53.448;9.984;2023-09-19T05:48:07;9.60;;;1.10;;
4307;SDS011;2167;53.448;9.984;2023-09-19T05:50:33;4.70;;;1.30;;
4307;SDS011;2167;53.448;9.984;2023-09-19T05:52:59;2.50;;;1.60;;
4307;SDS011;2167;53.448;9.984;2023-09-19T05:55:25;6.80;;;0.90;;
4307;SDS011;2167;53.448;9.984;2023-09-19T05:57:51;1.30;;;0.90;;
4307;SDS011;2167;53.448;9.984;2023-09-19T06:00:20;4.77;;;1.20;;
4307;SDS011;2167;53.448;9.984;2023-09-19T06:02:51;5.57;;;1.70;;
4307;SDS011;2167;53.448;9.984;2023-09-19T06:05:17;1.43;;;1.00;;
4307;SDS011;2167;53.448;9.984;2023-09-19T06:07:43;5.17;;;1.80;;
4307;SDS011;2167;53.448;9.984;2023-09-19T06:10:09;4.63;;;1.37;;
4307;SDS011;2167;53.448;9.984;2023-09-19T06:12:39;3.40;;;1.17;;
4307;SDS011;2167;53.448;9.984;2023-09-19T06:15:05;4.57;;;1.30;;
4307;SDS011;2167;53.448;9.984;2023-09-19T06:17:33;3.37;;;1.33;;
4307;SDS011;2167;53.448;9.984;2023-09-19T06:20:03;2.50;;;1.80;;
4307;SDS011;2167;53.448;9.984;2023-09-19T06:22:29;3.43;;;0.87;;
4307;SDS011;2167;53.448;9.984;2023-09-19T06:24:55;4.17;;;1.50;;
4307;SDS011;2167;53.448;9.984;2023-09-19T06:27:21;2.93;;;1.40;;
4307;SDS011;2167;53.448;9.984;2023-09-19T06:29:47;2.83;;;1.53;;
4307;SDS011;2167;53.448;9.984;2023-09-19T06:32:13;2.60;;;1.27;;
4307;SDS011;2167;53.448;9.984;2023-09-19T06:34:39;6.07;;;1.43;;
4307;SDS011;2167;53.448;9.984;2023-09-19T06:37:07;3.70;;;1.00;;
4307;SDS011;2167;53.448;9.984;2023-09-19T06:39:33;3.50;;;1.63;;
4307;SDS011;2167;53.448;9.984;2023-09-19T06:41:59;4.70;;;1.97;;
4307;SDS011;2167;53.448;9.984;2023-09-19T06:44:26;4.30;;;2.10;;
4307;SDS011;2167;53.448;9.984;2023-09-19T06:46:55;4.10;;;1.13;;
4307;SDS011;2167;53.448;9.984;2023-09-19T06:49:20;3.73;;;1.67;;
4307;SDS011;2167;53.448;9.984;2023-09-19T06:51:46;2.30;;;1.17;;
4307;SDS011;2167;53.448;9.984;2023-09-19T06:54:14;2.20;;;1.50;;
4307;SDS011;2167;53.448;9.984;2023-09-19T06:56:40;2.83;;;1.47;;
4307;SDS011;2167;53.448;9.984;2023-09-19T06:59:06;1.80;;;1.20;;
4307;SDS011;2167;53.448;9.984;2023-09-19T07:01:32;3.40;;;1.50;;
4307;SDS011;2167;53.448;9.984;2023-09-19T07:03:59;10.30;;;1.70;;
4307;SDS011;2167;53.448;9.984;2023-09-19T07:06:25;6.00;;;1.60;;
4307;SDS011;2167;53.448;9.984;2023-09-19T07:08:51;2.87;;;1.20;;
4307;SDS011;2167;53.448;9.984;2023-09-19T07:11:17;3.93;;;1.53;;
4307;SDS011;2167;53.448;9.984;2023-09-19T07:13:44;3.57;;;1.00;;
4307;SDS011;2167;53.448;9.984;2023-09-19T07:16:10;4.00;;;1.53;;
4307;SDS011;2167;53.448;9.984;2023-09-19T07:18:52;4.87;;;1.93;;
4307;SDS011;2167;53.448;9.984;2023-09-19T07:21:17;2.53;;;1.60;;
4307;SDS011;2167;53.448;9.984;2023-09-19T07:23:43;4.50;;;1.50;;
4307;SDS011;2167;53.448;9.984;2023-09-19T07:26:09;6.27;;;1.83;;
4307;SDS011;2167;53.448;9.984;2023-09-19T07:28:35;4.90;;;1.63;;
4307;SDS011;2167;53.448;9.984;2023-09-19T07:31:02;7.63;;;2.07;;
4307;SDS011;2167;53.448;9.984;2023-09-19T07:33:34;3.17;;;1.07;;
4307;SDS011;2167;53.448;9.984;2023-09-19T07:36:00;6.50;;;2.00;;
4307;SDS011;2167;53.448;9.984;2023-09-19T07:38:26;3.17;;;1.40;;
4307;SDS011;2167;53.448;9.984;2023-09-19T07:40:52;2.00;;;1.67;;
4307;SDS011;2167;53.448;9.984;2023-09-19T07:43:18;8.23;;;2.10;;
4307;SDS011;2167;53.448;9.984;2023-09-19T07:45:44;7.00;;;2.10;;
4307;SDS011;2167;53.448;9.984;2023-09-19T07:48:09;5.90;;;1.63;;
4307;SDS011;2167;53.448;9.984;2023-09-19T07:50:40;8.23;;;1.87;;
4307;SDS011;2167;53.448;9.984;2023-09-19T07:53:09;4.80;;;1.43;;
4307;SDS011;2167;53.448;9.984;2023-09-19T07:55:38;5.03;;;1.63;;
4307;SDS011;2167;53.448;9.984;2023-09-19T07:58:06;7.63;;;2.00;;
4307;SDS011;2167;53.448;9.984;2023-09-19T08:00:32;5.40;;;1.90;;
4307;SDS011;2167;53.448;9.984;2023-09-19T08:03:05;3.93;;;1.57;;
4307;SDS011;2167;53.448;9.984;2023-09-19T08:05:33;3.87;;;1.90;;
4307;SDS011;2167;53.448;9.984;2023-09-19T08:07:59;9.43;;;2.10;;
4307;SDS011;2167;53.448;9.984;2023-09-19T08:10:26;5.30;;;1.87;;
4307;SDS011;2167;53.448;9.984;2023-09-19T08:12:52;5.03;;;1.60;;
4307;SDS011;2167;53.448;9.984;2023-09-19T08:15:23;6.20;;;1.73;;
4307;SDS011;2167;53.448;9.984;2023-09-19T08:17:49;7.43;;;1.60;;
4307;SDS011;2167;53.448;9.984;2023-09-19T08:20:15;4.43;;;2.00;;
4307;SDS011;2167;53.448;9.984;2023-09-19T08:22:43;3.63;;;1.37;;
4307;SDS011;2167;53.448;9.984;2023-09-19T08:25:10;2.23;;;1.30;;
4307;SDS011;2167;53.448;9.984;2023-09-19T08:27:36;3.47;;;1.80;;
4307;SDS011;2167;53.448;9.984;2023-09-19T08:30:02;2.40;;;1.60;;
4307;SDS011;2167;53.448;9.984;2023-09-19T08:32:29;2.67;;;1.47;;
4307;SDS011;2167;53.448;9.984;2023-09-19T08:34:55;6.60;;;1.70;;
4307;SDS011;2167;53.448;9.984;2023-09-19T08:37:20;6.67;;;1.83;;
4307;SDS011;2167;53.448;9.984;2023-09-19T08:39:46;2.80;;;1.53;;
4307;SDS011;2167;53.448;9.984;2023-09-19T08:42:12;6.10;;;2.10;;
4307;SDS011;2167;53.448;9.984;2023-09-19T08:44:39;5.13;;;1.23;;
4307;SDS011;2167;53.448;9.984;2023-09-19T08:47:14;7.43;;;2.30;;
4307;SDS011;2167;53.448;9.984;2023-09-19T08:50:01;9.00;;;2.43;;
4307;SDS011;2167;53.448;9.984;2023-09-19T08:52:36;3.23;;;1.27;;
4307;SDS011;2167;53.448;9.984;2023-09-19T09:01:00;8.60;;;1.70;;
4307;SDS011;2167;53.448;9.984;2023-09-19T09:03:26;6.83;;;1.37;;
4307;SDS011;2167;53.448;9.984;2023-09-19T09:05:52;4.70;;;1.97;;
4307;SDS011;2167;53.448;9.984;2023-09-19T09:08:19;9.53;;;1.93;;
4307;SDS011;2167;53.448;9.984;2023-09-19T09:10:46;7.63;;;1.97;;
4307;SDS011;2167;53.448;9.984;2023-09-19T09:13:13;3.83;;;1.70;;
4307;SDS011;2167;53.448;9.984;2023-09-19T09:15:40;3.80;;;1.20;;
4307;SDS011;2167;53.448;9.984;2023-09-19T09:18:06;4.03;;;1.53;;
4307;SDS011;2167;53.448;9.984;2023-09-19T09:20:32;7.10;;;1.67;;
4307;SDS011;2167;53.448;9.984;2023-09-19T15:16:58;2.60;;;1.93;;
4307;SDS011;2167;53.448;9.984;2023-09-19T15:19:24;4.93;;;1.50;;
4307;SDS011;2167;53.448;9.984;2023-09-19T15:21:50;3.17;;;1.23;;
4307;SDS011;2167;53.448;9.984;2023-09-19T15:24:16;4.30;;;1.63;;
4307;SDS011;2167;53.448;9.984;2023-09-19T15:26:43;4.47;;;2.30;;
4307;SDS011;2167;53.448;9.984;2023-09-19T15:29:09;2.60;;;1.77;;
4307;SDS011;2167;53.448;9.984;2023-09-19T15:31:36;3.93;;;2.07;;
4307;SDS011;2167;53.448;9.984;2023-09-19T15:34:02;5.37;;;2.10;;
4307;SDS011;2167;53.448;9.984;2023-09-19T15:36:29;3.57;;;2.13;;
4307;SDS011;2167;53.448;9.984;2023-09-19T15:41:24;2.57;;;1.60;;
4307;SDS011;2167;53.448;9.984;2023-09-19T15:43:51;4.23;;;2.40;;
4307;SDS011;2167;53.448;9.984;2023-09-19T15:46:17;2.10;;;1.90;;
4307;SDS011;2167;53.448;9.984;2023-09-19T15:48:44;4.87;;;2.67;;
4307;SDS011;2167;53.448;9.984;2023-09-19T15:51:10;8.37;;;2.57;;
4307;SDS011;2167;53.448;9.984;2023-09-19T15:56:13;4.83;;;4.43;;
4307;SDS011;2167;53.448;9.984;2023-09-19T15:58:40;6.40;;;1.77;;
4307;SDS011;2167;53.448;9.984;2023-09-19T16:01:06;3.60;;;2.07;;
4307;SDS011;2167;53.448;9.984;2023-09-19T16:03:38;2.60;;;1.70;;
4307;SDS011;2167;53.448;9.984;2023-09-19T16:06:11;3.53;;;1.63;;
4307;SDS011;2167;53.448;9.984;2023-09-19T16:08:48;4.40;;;2.17;;
4307;SDS011;2167;53.448;9.984;2023-09-19T16:11:14;7.43;;;1.67;;
4307;SDS011;2167;53.448;9.984;2023-09-19T16:13:41;7.47;;;2.10;;
4307;SDS011;2167;53.448;9.984;2023-09-19T16:16:07;3.43;;;1.63;;
4307;SDS011;2167;53.448;9.984;2023-09-19T16:18:37;3.67;;;1.70;;
4307;SDS011;2167;53.448;9.984;2023-09-19T16:21:04;2.50;;;1.47;;
4307;SDS011;2167;53.448;9.984;2023-09-19T16:23:30;2.73;;;1.77;;
4307;SDS011;2167;53.448;9.984;2023-09-19T16:26:09;6.93;;;1.97;;
4307;SDS011;2167;53.448;9.984;2023-09-19T16:28:37;4.77;;;2.10;;
4307;SDS011;2167;53.448;9.984;2023-09-19T16:31:03;4.70;;;1.60;;
4307;SDS011;2167;53.448;9.984;2023-09-19T16:33:31;4.43;;;1.43;;
4307;SDS011;2167;53.448;9.984;2023-09-19T16:35:57;3.57;;;1.30;;
4307;SDS011;2167;53.448;9.984;2023-09-19T16:38:25;6.63;;;1.40;;
4307;SDS011;2167;53.448;9.984;2023-09-19T16:40:52;3.40;;;1.77;;
4307;SDS011;2167;53.448;9.984;2023-09-19T16:43:18;4.40;;;1.60;;
4307;SDS011;2167;53.448;9.984;2023-09-19T16:45:55;3.33;;;1.57;;
4307;SDS011;2167;53.448;9.984;2023-09-19T16:48:22;7.53;;;1.67;;
4307;SDS011;2167;53.448;9.984;2023-09-19T16:50:49;1.90;;;1.70;;
4307;SDS011;2167;53.448;9.984;2023-09-19T16:53:18;4.87;;;2.97;;
4307;SDS011;2167;53.448;9.984;2023-09-19T16:55:44;2.80;;;1.77;;
4307;SDS011;2167;53.448;9.984;2023-09-19T16:58:11;3.30;;;1.20;;
4307;SDS011;2167;53.448;9.984;2023-09-19T17:00:37;3.20;;;1.97;;
4307;SDS011;2167;53.448;9.984;2023-09-19T17:03:04;5.73;;;1.53;;
4307;SDS011;2167;53.448;9.984;2023-09-19T17:05:30;6.03;;;1.80;;
4307;SDS011;2167;53.448;9.984;2023-09-19T17:07:56;1.90;;;1.70;;
4307;SDS011;2167;53.448;9.984;2023-09-19T17:10:24;1.87;;;1.60;;
4307;SDS011;2167;53.448;9.984;2023-09-19T17:12:53;3.03;;;1.17;;
4307;SDS011;2167;53.448;9.984;2023-09-19T17:15:22;6.33;;;2.37;;
4307;SDS011;2167;53.448;9.984;2023-09-19T17:17:49;2.10;;;1.20;;
4307;SDS011;2167;53.448;9.984;2023-09-19T17:20:15;5.40;;;1.57;;
4307;SDS011;2167;53.448;9.984;2023-09-19T17:22:41;1.23;;;1.10;;
4307;SDS011;2167;53.448;9.984;2023-09-19T17:25:08;8.83;;;1.40;;
4307;SDS011;2167;53.448;9.984;2023-09-19T17:27:35;3.43;;;1.50;;
4307;SDS011;2167;53.448;9.984;2023-09-19T17:30:02;2.80;;;1.70;;
4307;SDS011;2167;53.448;9.984;2023-09-19T17:32:30;4.00;;;1.20;;
4307;SDS011;2167;53.448;9.984;2023-09-19T17:34:56;2.43;;;1.00;;
4307;SDS011;2167;53.448;9.984;2023-09-19T17:37:23;6.73;;;1.50;;
4307;SDS011;2167;53.448;9.984;2023-09-19T17:39:49;2.17;;;1.30;;
4307;SDS011;2167;53.448;9.984;2023-09-19T17:42:15;3.60;;;0.83;;
4307;SDS011;2167;53.448;9.984;2023-09-19T17:44:41;3.53;;;1.30;;
4307;SDS011;2167;53.448;9.984;2023-09-19T17:47:07;3.30;;;1.43;;
4307;SDS011;2167;53.448;9.984;2023-09-19T17:49:33;3.17;;;1.10;;
4307;SDS011;2167;53.448;9.984;2023-09-19T17:52:00;2.40;;;1.30;;
4307;SDS011;2167;53.448;9.984;2023-09-19T17:54:25;3.57;;;1.10;;
4307;SDS011;2167;53.448;9.984;2023-09-19T17:56:51;3.43;;;1.20;;
4307;SDS011;2167;53.448;9.984;2023-09-19T17:59:22;2.20;;;1.60;;
4307;SDS011;2167;53.448;9.984;2023-09-19T18:01:48;3.57;;;1.40;;
4307;SDS011;2167;53.448;9.984;2023-09-19T18:04:15;1.40;;;0.90;;
4307;SDS011;2167;53.448;9.984;2023-09-19T18:06:43;3.37;;;1.20;;
4307;SDS011;2167;53.448;9.984;2023-09-19T18:09:09;2.43;;;1.13;;
4307;SDS011;2167;53.448;9.984;2023-09-19T18:11:35;1.80;;;0.93;;
4307;SDS011;2167;53.448;9.984;2023-09-19T18:14:02;1.43;;;1.23;;
4307;SDS011;2167;53.448;9.984;2023-09-19T18:16:29;5.60;;;1.37;;
4307;SDS011;2167;53.448;9.984;2023-09-19T18:18:57;1.90;;;1.10;;
4307;SDS011;2167;53.448;9.984;2023-09-19T18:21:24;3.80;;;1.60;;
4307;SDS011;2167;53.448;9.984;2023-09-19T18:26:18;1.30;;;0.93;;
4307;SDS011;2167;53.448;9.984;2023-09-19T18:28:44;2.17;;;1.10;;
4307;SDS011;2167;53.448;9.984;2023-09-19T18:31:10;3.30;;;1.37;;
4307;SDS011;2167;53.448;9.984;2023-09-19T18:33:36;1.37;;;0.80;;
4307;SDS011;2167;53.448;9.984;2023-09-19T18:36:03;3.10;;;1.13;;
4307;SDS011;2167;53.448;9.984;2023-09-19T18:38:29;6.13;;;1.33;;
4307;SDS011;2167;53.448;9.984;2023-09-19T18:40:55;2.03;;;0.97;;
4307;SDS011;2167;53.448;9.984;2023-09-19T18:43:21;3.43;;;1.13;;
4307;SDS011;2167;53.448;9.984;2023-09-19T18:45:56;1.80;;;0.73;;
4307;SDS011;2167;53.448;9.984;2023-09-19T18:48:23;2.57;;;1.10;;
4307;SDS011;2167;53.448;9.984;2023-09-19T18:50:50;4.47;;;1.17;;
4307;SDS011;2167;53.448;9.984;2023-09-19T18:53:16;6.60;;;1.20;;
4307;SDS011;2167;53.448;9.984;2023-09-19T18:55:42;1.67;;;1.20;;
4307;SDS011;2167;53.448;9.984;2023-09-19T18:58:08;2.00;;;0.83;;
4307;SDS011;2167;53.448;9.984;2023-09-19T19:00:34;2.23;;;0.70;;
4307;SDS011;2167;53.448;9.984;2023-09-19T19:03:00;2.10;;;1.10;;
4307;SDS011;2167;53.448;9.984;2023-09-19T19:05:26;3.00;;;1.40;;
4307;SDS011;2167;53.448;9.984;2023-09-19T19:07:52;1.80;;;1.00;;
4307;SDS011;2167;53.448;9.984;2023-09-19T19:10:20;3.80;;;0.90;;
4307;SDS011;2167;53.448;9.984;2023-09-19T19:12:46;2.37;;;0.83;;
4307;SDS011;2167;53.448;9.984;2023-09-19T19:15:12;2.70;;;1.10;;
4307;SDS011;2167;53.448;9.984;2023-09-19T19:17:38;10.27;;;1.03;;
4307;SDS011;2167;53.448;9.984;2023-09-19T19:20:05;1.90;;;1.43;;
4307;SDS011;2167;53.448;9.984;2023-09-19T19:22:32;1.87;;;1.00;;
4307;SDS011;2167;53.448;9.984;2023-09-19T19:24:58;2.90;;;1.53;;
4307;SDS011;2167;53.448;9.984;2023-09-19T19:27:25;1.43;;;0.93;;
4307;SDS011;2167;53.448;9.984;2023-09-19T19:29:51;1.60;;;0.80;;
4307;SDS011;2167;53.448;9.984;2023-09-19T19:32:17;3.40;;;1.23;;
4307;SDS011;2167;53.448;9.984;2023-09-19T19:34:43;2.60;;;1.00;;
4307;SDS011;2167;53.448;9.984;2023-09-19T19:37:10;2.20;;;1.00;;
4307;SDS011;2167;53.448;9.984;2023-09-19T19:39:37;2.50;;;0.90;;
4307;SDS011;2167;53.448;9.984;2023-09-19T19:42:04;3.13;;;1.00;;
4307;SDS011;2167;53.448;9.984;2023-09-19T19:44:30;2.20;;;0.80;;
4307;SDS011;2167;53.448;9.984;2023-09-19T19:46:56;0.80;;;0.80;;
4307;SDS011;2167;53.448;9.984;2023-09-19T19:49:22;1.90;;;0.70;;
4307;SDS011;2167;53.448;9.984;2023-09-19T19:51:48;2.20;;;1.10;;
4307;SDS011;2167;53.448;9.984;2023-09-19T19:54:15;1.13;;;0.70;;
4307;SDS011;2167;53.448;9.984;2023-09-19T19:56:41;1.23;;;1.10;;
4307;SDS011;2167;53.448;9.984;2023-09-19T19:59:10;2.97;;;1.10;;
4307;SDS011;2167;53.448;9.984;2023-09-19T20:01:38;8.90;;;1.20;;
4307;SDS011;2167;53.448;9.984;2023-09-19T20:04:04;2.83;;;0.97;;
4307;SDS011;2167;53.448;9.984;2023-09-19T20:06:30;1.13;;;0.90;;
4307;SDS011;2167;53.448;9.984;2023-09-19T20:08:56;3.90;;;1.23;;
4307;SDS011;2167;53.448;9.984;2023-09-19T20:11:22;12.73;;;1.37;;
4307;SDS011;2167;53.448;9.984;2023-09-19T20:13:53;2.70;;;0.90;;
4307;SDS011;2167;53.448;9.984;2023-09-19T20:16:19;3.20;;;0.90;;
4307;SDS011;2167;53.448;9.984;2023-09-19T20:18:45;1.17;;;0.70;;
4307;SDS011;2167;53.448;9.984;2023-09-19T20:21:11;1.90;;;0.67;;
4307;SDS011;2167;53.448;9.984;2023-09-19T20:23:41;4.23;;;1.50;;
4307;SDS011;2167;53.448;9.984;2023-09-19T20:26:09;2.13;;;0.80;;
4307;SDS011;2167;53.448;9.984;2023-09-19T20:28:36;2.97;;;0.80;;
4307;SDS011;2167;53.448;9.984;2023-09-19T20:31:07;1.23;;;1.00;;
4307;SDS011;2167;53.448;9.984;2023-09-19T20:33:34;2.00;;;1.10;;
4307;SDS011;2167;53.448;9.984;2023-09-19T20:36:02;0.90;;;0.90;;
4307;SDS011;2167;53.448;9.984;2023-09-19T20:38:29;1.80;;;1.00;;
4307;SDS011;2167;53.448;9.984;2023-09-19T20:40:55;6.63;;;0.80;;
4307;SDS011;2167;53.448;9.984;2023-09-19T20:43:22;4.40;;;0.73;;
4307;SDS011;2167;53.448;9.984;2023-09-19T20:45:49;4.00;;;0.90;;
4307;SDS011;2167;53.448;9.984;2023-09-19T20:48:17;4.13;;;0.80;;
4307;SDS011;2167;53.448;9.984;2023-09-19T20:50:43;7.17;;;0.87;;
4307;SDS011;2167;53.448;9.984;2023-09-19T20:53:10;4.03;;;1.20;;
4307;SDS011;2167;53.448;9.984;2023-09-19T20:55:36;4.63;;;1.30;;
4307;SDS011;2167;53.448;9.984;2023-09-19T20:58:03;0.60;;;0.60;;
4307;SDS011;2167;53.448;9.984;2023-09-19T21:00:30;1.40;;;0.80;;
4307;SDS011;2167;53.448;9.984;2023-09-19T21:02:56;5.00;;;0.97;;
4307;SDS011;2167;53.448;9.984;2023-09-19T21:05:23;1.30;;;1.20;;
4307;SDS011;2167;53.448;9.984;2023-09-19T21:07:49;1.07;;;0.70;;
4307;SDS011;2167;53.448;9.984;2023-09-19T21:10:16;1.67;;;1.00;;
4307;SDS011;2167;53.448;9.984;2023-09-19T21:12:42;1.70;;;1.47;;
4307;SDS011;2167;53.448;9.984;2023-09-19T21:15:08;2.63;;;0.50;;
4307;SDS011;2167;53.448;9.984;2023-09-19T21:17:34;4.70;;;0.83;;
4307;SDS011;2167;53.448;9.984;2023-09-19T21:20:07;2.43;;;0.60;;
4307;SDS011;2167;53.448;9.984;2023-09-19T21:22:37;3.97;;;1.47;;
4307;SDS011;2167;53.448;9.984;2023-09-19T21:25:04;2.00;;;0.97;;
4307;SDS011;2167;53.448;9.984;2023-09-19T21:27:31;1.83;;;0.83;;
4307;SDS011;2167;53.448;9.984;2023-09-19T21:29:57;3.23;;;1.30;;
4307;SDS011;2167;53.448;9.984;2023-09-19T21:32:23;2.30;;;1.27;;
4307;SDS011;2167;53.448;9.984;2023-09-19T21:34:48;5.93;;;1.43;;
4307;SDS011;2167;53.448;9.984;2023-09-19T21:37:15;3.53;;;1.20;;